Time;durP1;ratioP1;P1;durP2;ratioP2;P2;SDS_P1;SDS_P2;PMS_P1;PMS_P2;Temp;Humidity;BMP_temperature;BMP_pressure;BME280_temperature;BME280_humidity;BME280_pressure;Samples;Min_cycle;Max_cycle;Signal;HPM_P1;HPM_P2
2022/11/01 00:02:40;;;;;;;4.13;3.17;;;20.50;64.20;;;;;;6295284;28;20032;-70
2022/11/01 00:05:40;;;;;;;4.13;2.80;;;20.50;64.20;;;;;;6294792;28;20467;-70
2022/11/01 00:08:41;;;;;;;4.32;3.22;;;20.50;64.20;;;;;;6294778;28;20398;-71
2022/11/01 00:11:41;;;;;;;3.78;3.08;;;20.50;64.30;;;;;;6294796;28;20055;-70
2022/11/01 00:14:42;;;;;;;3.00;2.60;;;20.50;64.20;;;;;;6294560;28;20560;-70
2022/11/01 00:17:43;;;;;;;4.30;2.78;;;20.50;64.30;;;;;;6294642;28;20036;-71
2022/11/01 00:20:43;;;;;;;3.35;2.58;;;20.50;64.30;;;;;;6294788;28;20463;-71
2022/11/01 00:23:45;;;;;;;2.92;2.63;;;20.50;64.20;;;;;;6294020;28;20059;-71
2022/11/01 00:26:45;;;;;;;3.90;2.72;;;20.50;64.20;;;;;;6293823;28;20043;-71
2022/11/01 00:29:46;;;;;;;3.20;2.70;;;20.50;64.20;;;;;;6293887;28;20032;-71
2022/11/01 00:32:46;;;;;;;3.47;3.00;;;20.50;64.20;;;;;;6294225;28;20032;-70
2022/11/01 00:35:47;;;;;;;2.72;2.25;;;20.50;65.10;;;;;;6293933;28;20021;-71
2022/11/01 00:38:50;;;;;;;3.08;2.55;;;20.50;64.30;;;;;;6293927;28;20029;-71
2022/11/01 00:41:50;;;;;;;3.13;2.83;;;20.50;64.30;;;;;;6293570;28;20027;-71
2022/11/01 00:44:51;;;;;;;3.78;3.15;;;20.50;64.30;;;;;;6293649;28;20032;-70
2022/11/01 00:47:51;;;;;;;3.13;2.70;;;20.50;64.20;;;;;;6293943;28;20171;-70
2022/11/01 00:50:53;;;;;;;3.75;3.10;;;20.50;64.20;;;;;;6293214;28;20415;-70
2022/11/01 00:53:53;;;;;;;2.80;2.45;;;20.50;64.30;;;;;;6293393;28;20024;-70
2022/11/01 00:56:54;;;;;;;3.08;2.67;;;20.50;64.30;;;;;;6293341;28;20029;-70
2022/11/01 00:59:54;;;;;;;3.90;2.70;;;20.50;64.20;;;;;;6293448;28;20052;-71
2022/11/01 01:02:55;;;;;;;3.25;2.70;;;20.50;64.20;;;;;;6293335;28;20116;-71
2022/11/01 01:05:55;;;;;;;3.28;2.70;;;20.50;64.30;;;;;;6293082;28;20029;-70
2022/11/01 01:09:00;;;;;;;3.40;2.45;;;20.50;64.20;;;;;;6292945;28;20027;-70
2022/11/01 01:12:01;;;;;;;2.92;2.60;;;20.50;64.20;;;;;;6292851;28;20391;-71
2022/11/01 01:15:02;;;;;;;3.65;3.08;;;20.50;64.20;;;;;;6292711;28;20044;-70
2022/11/01 01:18:03;;;;;;;2.97;2.63;;;20.50;64.20;;;;;;6293531;28;20048;-71
2022/11/01 01:21:04;;;;;;;3.70;2.50;;;20.50;64.30;;;;;;6292660;28;20495;-71
2022/11/01 01:24:05;;;;;;;3.40;2.85;;;20.50;64.20;;;;;;6292218;28;20581;-70
2022/11/01 01:27:06;;;;;;;3.83;2.80;;;20.50;64.30;;;;;;6292792;28;20039;-70
2022/11/01 01:30:06;;;;;;;4.57;3.03;;;20.50;64.30;;;;;;6292680;28;20017;-71
2022/11/01 01:33:08;;;;;;;4.20;2.75;;;20.50;64.30;;;;;;6292812;28;20498;-71
2022/11/01 01:36:09;;;;;;;3.90;2.60;;;20.50;64.20;;;;;;6292035;28;20035;-70
2022/11/01 01:39:10;;;;;;;3.92;2.53;;;20.50;64.30;;;;;;6292358;28;20166;-71
2022/11/01 01:42:14;;;;;;;2.72;2.45;;;20.50;64.30;;;;;;6292445;28;20024;-71
2022/11/01 01:45:32;;;;;;;3.25;2.50;;;20.50;64.30;;;;;;6292274;28;20032;-71
2022/11/01 01:48:33;;;;;;;3.35;2.75;;;20.50;64.30;;;;;;6292269;28;20023;-71
2022/11/01 01:51:33;;;;;;;2.90;2.50;;;20.50;64.20;;;;;;6292239;28;20044;-71
2022/11/01 01:54:34;;;;;;;2.97;2.53;;;20.50;64.30;;;;;;6291933;28;20383;-71
2022/11/01 01:57:38;;;;;;;3.50;2.78;;;20.50;64.30;;;;;;6292364;28;20081;-71
2022/11/01 02:00:40;;;;;;;3.30;2.30;;;20.50;64.30;;;;;;6291910;28;20033;-71
2022/11/01 02:03:42;;;;;;;3.42;2.80;;;20.50;64.30;;;;;;6291498;28;20020;-70
2022/11/01 02:06:42;;;;;;;3.22;2.47;;;20.50;64.30;;;;;;6287259;28;20472;-71
2022/11/01 02:09:43;;;;;;;3.20;2.70;;;20.50;64.20;;;;;;6292473;28;20058;-70
2022/11/01 02:12:47;;;;;;;2.63;2.42;;;20.50;64.20;;;;;;6291946;28;20028;-71
2022/11/01 02:15:53;;;;;;;3.17;2.30;;;20.50;64.30;;;;;;6291808;28;20463;-70
2022/11/01 02:18:57;;;;;;;2.80;2.50;;;20.50;64.30;;;;;;6291822;28;20055;-71
2022/11/01 02:22:17;;;;;;;3.13;2.50;;;20.50;64.30;;;;;;6291452;28;20524;-71
2022/11/01 02:25:37;;;;;;;4.22;2.80;;;20.50;64.30;;;;;;6292196;28;20028;-70
2022/11/01 02:29:18;;;;;;;3.13;2.53;;;20.50;64.30;;;;;;6291939;28;20029;-71
2022/11/01 02:32:20;;;;;;;2.78;2.25;;;20.50;64.20;;;;;;6291329;28;20260;-69
2022/11/01 02:35:42;;;;;;;3.60;2.78;;;20.50;64.30;;;;;;6291464;28;20030;-71
2022/11/01 02:38:50;;;;;;;2.72;2.42;;;20.50;64.20;;;;;;6291582;28;20108;-70
2022/11/01 02:42:08;;;;;;;2.95;2.33;;;20.50;64.30;;;;;;6291441;28;20033;-71
2022/11/01 02:45:26;;;;;;;2.90;2.22;;;20.50;64.30;;;;;;6291769;28;20053;-70
2022/11/01 02:48:27;;;;;;;3.42;2.53;;;20.50;64.30;;;;;;6291274;28;20028;-70
2022/11/01 02:51:28;;;;;;;3.33;2.72;;;20.50;64.20;;;;;;6291004;28;20075;-71
2022/11/01 02:54:44;;;;;;;2.63;2.40;;;20.50;64.20;;;;;;6291499;28;20028;-70
2022/11/01 02:57:46;;;;;;;3.75;3.00;;;20.50;64.30;;;;;;6291229;28;20086;-70
2022/11/01 03:00:47;;;;;;;2.70;2.35;;;20.50;64.20;;;;;;6291339;28;20021;-70
2022/11/01 03:03:50;;;;;;;2.70;2.38;;;20.50;64.20;;;;;;6291979;28;20479;-71
2022/11/01 03:06:56;;;;;;;2.67;2.35;;;20.50;64.20;;;;;;6290862;28;20020;-71
2022/11/01 03:09:58;;;;;;;2.88;2.53;;;20.50;64.30;;;;;;6291353;28;20084;-70
2022/11/01 03:13:31;;;;;;;2.38;2.17;;;20.50;64.30;;;;;;6289887;28;20032;-71
2022/11/01 03:16:36;;;;;;;2.60;2.35;;;20.50;64.30;;;;;;6296163;28;20025;-71
2022/11/01 03:19:46;;;;;;;3.35;2.40;;;20.50;64.30;;;;;;6295841;28;20063;-70
2022/11/01 03:22:57;;;;;;;3.17;2.42;;;20.50;64.30;;;;;;6296271;28;20108;-71
2022/11/01 03:26:01;;;;;;;2.78;2.40;;;20.50;64.30;;;;;;6295071;28;20394;-71
2022/11/01 03:29:06;;;;;;;3.55;1.98;;;20.50;64.20;;;;;;6295786;28;20394;-70
2022/11/01 03:32:08;;;;;;;3.03;2.30;;;20.50;64.30;;;;;;6295442;28;20503;-71
2022/11/01 03:35:14;;;;;;;2.83;2.40;;;20.50;64.30;;;;;;6295664;28;20020;-71
2022/11/01 03:38:18;;;;;;;3.30;2.60;;;20.50;64.30;;;;;;6295021;28;20586;-70
2022/11/01 03:41:20;;;;;;;2.78;2.40;;;20.50;64.30;;;;;;6295385;28;20052;-71
2022/11/01 03:44:21;;;;;;;2.78;2.30;;;20.50;64.20;;;;;;6295569;28;20348;-70
2022/11/01 03:47:22;;;;;;;2.50;1.98;;;20.50;64.30;;;;;;6295291;28;20177;-70
2022/11/01 03:50:25;;;;;;;3.28;2.60;;;20.50;64.30;;;;;;6294989;28;20498;-70
2022/11/01 03:53:26;;;;;;;3.00;2.60;;;20.50;64.30;;;;;;6294825;28;20031;-71
2022/11/01 03:56:26;;;;;;;3.17;2.50;;;20.50;64.30;;;;;;6294665;28;20095;-71
2022/11/01 03:59:27;;;;;;;3.40;2.60;;;20.50;64.20;;;;;;6294654;28;20029;-71
2022/11/01 04:02:28;;;;;;;3.05;2.50;;;20.50;64.30;;;;;;6294575;28;20052;-70
2022/11/01 04:05:30;;;;;;;2.50;2.13;;;20.50;64.20;;;;;;6295048;28;20379;-70
2022/11/01 04:08:31;;;;;;;2.88;2.38;;;20.50;64.20;;;;;;6294647;28;20029;-70
2022/11/01 04:11:32;;;;;;;2.72;2.25;;;20.50;64.20;;;;;;6294295;28;20115;-71
2022/11/01 04:21:32;;;;;;;2.72;2.30;;;20.50;64.20;;;;;;6293880;28;20058;-70
2022/11/01 04:24:33;;;;;;;3.13;2.28;;;20.50;64.20;;;;;;6293710;28;20073;-71
2022/11/01 04:27:34;;;;;;;3.03;2.33;;;20.50;64.20;;;;;;6293355;28;20025;-70
2022/11/01 04:30:34;;;;;;;2.85;2.25;;;20.50;64.30;;;;;;6293686;28;20465;-70
2022/11/01 04:33:35;;;;;;;4.65;2.83;;;20.50;64.30;;;;;;6294029;28;20047;-71
2022/11/01 04:36:37;;;;;;;2.75;2.25;;;20.50;64.20;;;;;;6294083;28;20031;-71
2022/11/01 04:39:37;;;;;;;2.95;2.20;;;20.50;64.30;;;;;;6293455;28;20032;-70
2022/11/01 04:42:39;;;;;;;3.08;2.40;;;20.50;64.20;;;;;;6293702;28;20024;-71
2022/11/01 04:45:40;;;;;;;4.40;2.35;;;20.50;64.20;;;;;;6293633;28;20077;-71
2022/11/01 04:48:41;;;;;;;2.78;2.47;;;20.50;64.20;;;;;;6293396;28;20103;-70
2022/11/01 04:51:41;;;;;;;3.22;2.40;;;20.50;64.20;;;;;;6293518;28;20044;-70
2022/11/01 04:54:42;;;;;;;2.65;2.28;;;20.50;64.20;;;;;;6293264;28;20036;-71
2022/11/01 04:57:43;;;;;;;3.22;2.42;;;20.50;64.30;;;;;;6293061;28;20033;-70
2022/11/01 05:00:44;;;;;;;2.35;2.00;;;20.50;64.20;;;;;;6293341;28;20099;-69
2022/11/01 05:03:46;;;;;;;2.53;2.22;;;20.50;64.20;;;;;;6291763;28;20032;-70
2022/11/01 05:06:47;;;;;;;2.30;1.92;;;20.50;64.30;;;;;;6293122;28;20020;-71
2022/11/01 05:09:47;;;;;;;2.10;1.90;;;20.50;64.20;;;;;;6293392;28;20481;-71
2022/11/01 05:12:48;;;;;;;2.60;1.88;;;20.50;64.20;;;;;;6292615;28;20017;-70
2022/11/01 05:15:48;;;;;;;2.30;1.90;;;20.50;64.20;;;;;;6293038;28;20078;-71
2022/11/01 05:18:49;;;;;;;2.97;2.30;;;20.50;65.10;;;;;;6292336;28;20064;-70
2022/11/01 05:21:50;;;;;;;2.35;2.00;;;20.50;64.20;;;;;;6293318;28;20024;-69
2022/11/01 05:24:52;;;;;;;3.03;2.30;;;20.50;64.20;;;;;;6292393;28;20036;-70
2022/11/01 05:27:58;;;;;;;3.20;2.42;;;20.50;64.20;;;;;;6293218;28;20028;-71
2022/11/01 05:30:59;;;;;;;2.38;2.17;;;20.50;65.10;;;;;;6292397;28;20035;-70
2022/11/01 05:34:00;;;;;;;2.42;2.08;;;20.50;64.20;;;;;;6292619;28;20021;-71
2022/11/01 05:37:00;;;;;;;2.60;2.28;;;20.50;64.20;;;;;;6292774;28;20260;-70
2022/11/01 05:40:02;;;;;;;2.80;2.30;;;20.50;64.20;;;;;;6292638;28;20036;-71
2022/11/01 05:43:02;;;;;;;2.92;2.20;;;20.50;65.20;;;;;;6292752;28;20028;-71
2022/11/01 05:46:04;;;;;;;2.60;1.88;;;20.50;64.30;;;;;;6292300;28;20070;-71
2022/11/01 05:49:05;;;;;;;3.45;2.33;;;20.50;64.30;;;;;;6292243;28;20093;-70
2022/11/01 05:52:06;;;;;;;2.10;1.90;;;20.50;64.20;;;;;;6292206;28;20491;-71
2022/11/01 05:55:08;;;;;;;2.65;2.22;;;20.50;64.20;;;;;;6291495;28;20070;-70
2022/11/01 05:58:09;;;;;;;2.65;2.13;;;20.50;64.20;;;;;;6291979;28;20533;-70
2022/11/01 06:01:09;;;;;;;2.20;2.00;;;20.50;64.20;;;;;;6288998;28;20082;-71
2022/11/01 06:04:10;;;;;;;2.63;2.10;;;20.50;64.20;;;;;;6274164;28;20432;-71
2022/11/01 06:07:10;;;;;;;3.13;2.00;;;20.50;64.20;;;;;;6292084;28;20086;-70
2022/11/01 06:10:11;;;;;;;2.20;1.90;;;20.50;64.30;;;;;;6291793;28;20048;-69
2022/11/01 06:13:12;;;;;;;2.70;2.17;;;20.50;64.20;;;;;;6291926;28;20233;-70
2022/11/01 06:16:12;;;;;;;2.90;2.35;;;20.50;64.20;;;;;;6292185;28;20444;-71
2022/11/01 06:19:13;;;;;;;3.08;2.30;;;20.50;64.30;;;;;;6291278;28;20491;-70
2022/11/01 06:22:13;;;;;;;3.55;2.53;;;20.50;64.20;;;;;;6291707;28;20025;-71
2022/11/01 06:25:14;;;;;;;2.33;2.03;;;20.50;64.20;;;;;;6291126;28;20252;-70
2022/11/01 06:28:15;;;;;;;2.78;2.08;;;20.50;64.20;;;;;;6291302;28;20384;-71
2022/11/01 06:31:16;;;;;;;2.22;1.92;;;20.50;64.20;;;;;;6291134;28;20549;-71
2022/11/01 06:34:16;;;;;;;2.85;2.10;;;20.50;64.10;;;;;;6272053;28;20082;-71
2022/11/01 06:37:17;;;;;;;2.83;2.30;;;20.50;64.20;;;;;;6290502;28;20048;-71
2022/11/01 06:40:17;;;;;;;2.50;1.98;;;20.50;64.30;;;;;;6287449;28;20035;-71
2022/11/01 06:43:18;;;;;;;3.00;2.10;;;20.50;65.10;;;;;;6290843;28;20024;-71
2022/11/01 06:46:18;;;;;;;2.00;1.80;;;20.50;64.30;;;;;;6289877;28;20511;-71
2022/11/01 06:49:20;;;;;;;3.88;2.25;;;20.50;64.30;;;;;;6292923;28;20032;-71
2022/11/01 06:52:20;;;;;;;5.07;2.25;;;20.50;64.30;;;;;;6293646;28;20048;-70
2022/11/01 06:55:21;;;;;;;2.20;1.90;;;20.50;64.30;;;;;;6295155;28;20189;-71
2022/11/01 06:58:21;;;;;;;3.08;2.30;;;20.50;64.30;;;;;;6294768;28;20387;-71
2022/11/01 07:01:23;;;;;;;2.42;1.98;;;20.50;64.30;;;;;;6285722;28;20036;-71
2022/11/01 07:04:26;;;;;;;2.40;1.92;;;20.50;64.30;;;;;;6290523;28;20403;-71
2022/11/01 07:07:27;;;;;;;2.10;1.90;;;20.50;64.30;;;;;;6297769;28;20024;-71
2022/11/01 07:10:27;;;;;;;4.20;1.80;;;20.50;64.30;;;;;;6297333;28;20031;-71
2022/11/01 07:13:32;;;;;;;2.50;1.90;;;20.50;64.30;;;;;;6297375;28;20081;-71
2022/11/01 07:16:33;;;;;;;1.92;1.73;;;20.50;64.30;;;;;;6297334;28;20035;-71
2022/11/01 07:19:33;;;;;;;2.53;1.85;;;20.50;64.30;;;;;;6296637;28;20041;-71
2022/11/01 07:22:34;;;;;;;1.92;1.73;;;20.50;64.30;;;;;;6297372;28;20439;-71
2022/11/01 07:25:35;;;;;;;2.00;1.80;;;20.50;64.30;;;;;;6294062;28;20039;-70
2022/11/01 07:28:36;;;;;;;2.20;1.88;;;20.50;64.30;;;;;;6290040;28;20028;-71
2022/11/01 07:31:37;;;;;;;5.88;2.03;;;20.50;64.30;;;;;;6296972;28;20062;-71
2022/11/01 07:34:38;;;;;;;3.05;2.15;;;20.50;64.20;;;;;;6296995;28;20025;-70
2022/11/01 07:37:39;;;;;;;3.50;2.00;;;20.50;64.30;;;;;;6296739;28;20587;-71
2022/11/01 07:40:40;;;;;;;2.22;1.92;;;20.50;64.20;;;;;;6296265;28;20029;-70
2022/11/01 07:43:40;;;;;;;3.08;2.35;;;20.50;64.30;;;;;;6296599;28;20033;-71
2022/11/01 07:46:41;;;;;;;2.97;1.88;;;20.50;64.30;;;;;;6296708;28;20075;-70
2022/11/01 07:49:41;;;;;;;2.17;1.73;;;20.50;64.30;;;;;;6296485;28;20044;-70
2022/11/01 07:52:42;;;;;;;3.22;2.47;;;20.50;64.30;;;;;;6296351;28;20036;-70
2022/11/01 07:55:44;;;;;;;3.60;2.00;;;20.50;64.30;;;;;;6296661;28;20031;-70
2022/11/01 07:58:44;;;;;;;5.25;2.10;;;20.50;64.30;;;;;;6286325;28;20377;-71
2022/11/01 08:01:45;;;;;;;2.75;2.17;;;20.50;64.30;;;;;;6295202;28;20043;-70
2022/11/01 08:04:46;;;;;;;3.10;2.22;;;20.50;64.30;;;;;;6289586;28;20479;-71
2022/11/01 08:07:47;;;;;;;2.67;2.30;;;20.50;64.30;;;;;;6292127;28;20027;-71
2022/11/01 08:10:47;;;;;;;2.78;2.20;;;20.50;64.30;;;;;;6303351;28;20086;-70
2022/11/01 08:13:48;;;;;;;2.17;1.70;;;20.50;64.30;;;;;;6287906;28;20029;-71
2022/11/01 08:16:54;;;;;;;2.20;1.98;;;20.50;64.30;;;;;;6295671;28;20104;-70
2022/11/01 08:19:55;;;;;;;3.72;2.08;;;20.50;64.30;;;;;;6286065;28;20032;-71
2022/11/01 08:22:56;;;;;;;2.92;2.10;;;20.50;64.30;;;;;;6295296;28;20480;-70
2022/11/01 08:25:57;;;;;;;3.13;2.00;;;20.50;64.30;;;;;;6274674;28;20487;-69
2022/11/01 08:28:59;;;;;;;2.53;1.95;;;20.50;64.30;;;;;;6270932;28;20040;-69
2022/11/01 08:31:59;;;;;;;3.92;2.08;;;20.60;64.10;;;;;;6280746;28;20052;-70
2022/11/01 08:35:00;;;;;;;2.85;1.80;;;20.60;64.00;;;;;;6294773;28;20077;-70
2022/11/01 08:38:02;;;;;;;2.20;1.98;;;20.60;63.90;;;;;;6295332;28;20029;-71
2022/11/01 08:41:02;;;;;;;3.58;2.28;;;20.60;64.00;;;;;;6295281;28;20108;-70
2022/11/01 08:44:03;;;;;;;8.98;2.08;;;20.60;63.90;;;;;;6294873;28;20017;-71
2022/11/01 08:47:04;;;;;;;4.80;2.30;;;20.60;64.10;;;;;;6290644;28;20077;-70
2022/11/01 08:50:07;;;;;;;7.95;3.00;;;20.60;64.00;;;;;;6279068;28;20060;-69
2022/11/01 08:53:11;;;;;;;8.80;5.05;;;20.60;63.80;;;;;;6294856;28;20067;-70
2022/11/01 08:56:12;;;;;;;13.90;5.43;;;20.60;63.50;;;;;;6294721;28;20017;-71
2022/11/01 08:59:13;;;;;;;2.42;2.15;;;20.60;63.40;;;;;;6294373;28;20043;-70
2022/11/01 09:02:13;;;;;;;9.90;3.17;;;20.50;63.70;;;;;;6294291;28;20020;-70
2022/11/01 09:05:14;;;;;;;9.23;4.38;;;20.50;63.70;;;;;;6293964;28;20517;-71
2022/11/01 09:08:14;;;;;;;12.85;7.18;;;20.60;63.50;;;;;;6294479;28;20073;-70
2022/11/01 09:11:15;;;;;;;15.80;5.28;;;20.60;62.70;;;;;;6310669;28;20123;-71
2022/11/01 09:14:16;;;;;;;10.20;5.85;;;20.60;63.10;;;;;;6294824;28;20048;-70
2022/11/01 09:17:16;;;;;;;9.48;4.07;;;20.70;63.20;;;;;;6284605;28;20161;-70
2022/11/01 09:20:17;;;;;;;9.73;4.80;;;20.70;63.30;;;;;;6293912;28;20033;-70
2022/11/01 09:23:18;;;;;;;10.40;5.00;;;20.60;63.30;;;;;;6293490;28;20032;-71
2022/11/01 09:26:19;;;;;;;10.32;5.00;;;20.70;63.30;;;;;;6292885;28;20016;-71
2022/11/01 09:29:20;;;;;;;9.57;4.47;;;20.70;63.30;;;;;;6293510;28;20437;-71
2022/11/01 09:32:20;;;;;;;10.00;5.50;;;20.70;63.40;;;;;;6291225;28;20111;-70
2022/11/01 09:35:21;;;;;;;12.30;5.43;;;20.60;63.30;;;;;;6293735;28;20024;-70
2022/11/01 09:38:22;;;;;;;7.68;4.75;;;20.60;63.30;;;;;;6293530;28;20028;-71
2022/11/01 09:41:25;;;;;;;7.68;4.55;;;20.70;63.50;;;;;;6293671;28;20048;-71
2022/11/01 09:44:30;;;;;;;8.50;4.50;;;20.60;63.40;;;;;;6293740;28;20399;-70
2022/11/01 09:47:34;;;;;;;10.40;4.78;;;20.60;63.40;;;;;;6293203;28;20015;-70
2022/11/01 09:50:38;;;;;;;7.82;4.38;;;20.70;63.50;;;;;;6270820;28;20090;-70
2022/11/01 09:53:40;;;;;;;6.88;4.68;;;20.70;63.60;;;;;;6281281;28;20506;-71
2022/11/01 09:56:50;;;;;;;6.30;4.45;;;20.60;63.40;;;;;;6293281;28;20032;-70
2022/11/01 10:00:04;;;;;;;7.57;4.47;;;20.70;63.60;;;;;;6292977;28;20025;-70
2022/11/01 10:03:20;;;;;;;8.43;4.67;;;20.70;63.60;;;;;;6293487;28;20121;-70
2022/11/01 10:06:31;;;;;;;7.57;4.32;;;20.60;63.50;;;;;;6293283;28;20024;-70
2022/11/01 10:09:57;;;;;;;7.53;5.03;;;20.60;63.50;;;;;;6291131;28;20033;-71
2022/11/01 10:13:12;;;;;;;8.48;4.65;;;20.70;63.60;;;;;;6272893;28;20056;-71
2022/11/01 10:16:18;;;;;;;5.82;3.80;;;20.70;63.50;;;;;;6293152;28;20494;-70
2022/11/01 10:19:22;;;;;;;5.55;3.85;;;20.70;63.60;;;;;;6292926;28;20028;-70
2022/11/01 10:22:33;;;;;;;7.60;4.68;;;20.60;63.40;;;;;;6292941;28;20055;-71
2022/11/01 10:25:38;;;;;;;7.15;4.07;;;20.70;63.50;;;;;;6290840;28;20028;-71
2022/11/01 10:28:50;;;;;;;8.02;4.30;;;20.70;63.60;;;;;;6276500;28;20024;-70
2022/11/01 10:31:53;;;;;;;8.48;4.15;;;20.70;63.60;;;;;;6293039;28;20025;-70
2022/11/01 10:34:59;;;;;;;5.45;3.90;;;20.70;63.50;;;;;;6292306;28;20023;-70
2022/11/01 10:38:18;;;;;;;8.35;4.40;;;20.70;63.50;;;;;;6292270;28;20387;-70
2022/11/01 10:41:43;;;;;;;6.80;4.20;;;20.70;63.50;;;;;;6292965;28;20017;-71
2022/11/01 10:44:57;;;;;;;5.80;3.90;;;20.60;63.40;;;;;;6292980;28;20048;-70
2022/11/01 10:47:58;;;;;;;5.43;3.97;;;20.70;63.50;;;;;;6292971;28;20320;-71
2022/11/01 10:51:02;;;;;;;5.75;4.03;;;20.70;63.50;;;;;;6279346;28;20426;-70
2022/11/01 10:54:09;;;;;;;6.72;4.22;;;20.60;63.30;;;;;;6276067;28;20074;-71
2022/11/01 10:57:19;;;;;;;7.63;4.68;;;20.60;63.30;;;;;;6293676;28;20189;-70
2022/11/01 11:00:20;;;;;;;11.55;5.65;;;20.60;63.20;;;;;;6292553;28;20082;-71
2022/11/01 11:03:27;;;;;;;11.20;5.25;;;20.70;63.40;;;;;;6292131;28;20116;-70
2022/11/01 11:06:28;;;;;;;11.07;5.53;;;20.70;63.40;;;;;;6291107;28;20032;-71
2022/11/01 11:09:33;;;;;;;7.72;4.95;;;20.70;63.30;;;;;;6288430;28;20111;-70
2022/11/01 11:12:35;;;;;;;7.97;4.40;;;20.70;63.40;;;;;;6282110;28;20021;-70
2022/11/01 11:15:44;;;;;;;6.43;4.15;;;20.70;63.50;;;;;;6292618;28;20028;-70
2022/11/01 11:19:20;;;;;;;7.47;4.15;;;20.70;63.40;;;;;;6292389;28;20044;-70
2022/11/01 11:22:22;;;;;;;6.20;4.40;;;20.60;63.40;;;;;;6289846;28;20064;-71
2022/11/01 11:25:31;;;;;;;7.00;3.90;;;20.70;63.50;;;;;;6291558;28;20031;-71
2022/11/01 11:28:41;;;;;;;8.88;4.38;;;20.70;63.60;;;;;;6291177;28;20029;-70
2022/11/01 11:31:41;;;;;;;5.28;3.80;;;20.60;63.50;;;;;;6281734;28;20025;-71
2022/11/01 11:34:42;;;;;;;6.72;4.32;;;20.60;63.60;;;;;;6275697;28;20021;-70
2022/11/01 11:38:03;;;;;;;7.85;4.30;;;20.60;63.60;;;;;;6285079;28;20036;-71
2022/11/01 11:41:04;;;;;;;10.13;4.30;;;20.60;63.60;;;;;;6292335;28;20036;-70
2022/11/01 11:44:33;;;;;;;7.35;3.97;;;20.70;63.70;;;;;;6296033;28;20021;-70
2022/11/01 11:47:37;;;;;;;10.07;4.60;;;20.60;63.60;;;;;;6295220;28;20020;-71
2022/11/01 11:50:37;;;;;;;6.57;3.85;;;20.60;63.60;;;;;;6295085;28;20044;-70
2022/11/01 11:53:38;;;;;;;10.73;4.38;;;20.60;63.70;;;;;;6295575;28;20094;-70
2022/11/01 11:56:39;;;;;;;6.30;3.83;;;20.60;63.70;;;;;;6293291;28;20099;-70
2022/11/01 11:59:41;;;;;;;7.03;3.83;;;20.60;63.70;;;;;;6275776;28;20024;-70
2022/11/01 12:02:42;;;;;;;9.32;3.95;;;20.60;63.70;;;;;;6284865;28;20031;-70
2022/11/01 12:05:56;;;;;;;8.20;4.10;;;20.60;63.70;;;;;;6286934;28;20025;-71
2022/11/01 12:08:58;;;;;;;5.80;3.72;;;20.60;63.80;;;;;;6296765;28;20041;-67
2022/11/01 12:12:07;;;;;;;7.07;4.10;;;20.60;63.80;;;;;;6295399;28;20119;-71
2022/11/01 12:15:34;;;;;;;8.05;4.35;;;20.60;63.90;;;;;;6296331;28;20016;-70
2022/11/01 12:18:53;;;;;;;6.75;3.90;;;20.60;63.90;;;;;;6294346;28;20040;-70
2022/11/01 12:22:02;;;;;;;6.32;4.00;;;20.60;63.90;;;;;;6295819;28;20020;-70
2022/11/01 12:25:29;;;;;;;7.40;3.90;;;20.60;63.90;;;;;;6295473;28;20499;-71
2022/11/01 12:28:40;;;;;;;7.00;3.90;;;20.60;63.90;;;;;;6269727;28;20033;-70
2022/11/01 12:31:43;;;;;;;6.40;3.72;;;20.60;63.90;;;;;;6287447;28;20093;-70
2022/11/01 12:34:46;;;;;;;6.55;3.78;;;20.60;64.00;;;;;;6295252;28;20020;-70
2022/11/01 12:37:55;;;;;;;6.47;3.33;;;20.60;64.00;;;;;;6287851;28;20085;-71
2022/11/01 12:41:01;;;;;;;5.13;3.70;;;20.60;64.00;;;;;;6294203;28;20031;-70
2022/11/01 12:44:23;;;;;;;6.07;3.47;;;20.60;64.00;;;;;;6294534;28;20029;-71
2022/11/01 12:47:29;;;;;;;5.25;3.45;;;20.60;64.00;;;;;;6291917;28;20051;-69
2022/11/01 12:50:53;;;;;;;5.15;3.45;;;20.60;64.00;;;;;;6293975;28;20029;-70
2022/11/01 12:53:58;;;;;;;5.95;3.40;;;20.60;64.00;;;;;;6294657;28;20147;-71
2022/11/01 12:57:00;;;;;;;6.78;3.38;;;20.60;64.00;;;;;;6286290;28;20040;-70
2022/11/01 13:00:03;;;;;;;10.05;3.95;;;20.60;64.00;;;;;;6270005;28;20037;-70
2022/11/01 13:03:20;;;;;;;5.57;3.30;;;20.60;64.10;;;;;;6275503;28;20025;-70
2022/11/01 13:06:49;;;;;;;8.13;3.55;;;20.60;64.00;;;;;;6293158;28;20490;-70
2022/11/01 13:10:13;;;;;;;6.38;3.38;;;20.60;64.00;;;;;;6289332;28;20032;-70
2022/11/01 13:13:33;;;;;;;5.32;3.28;;;20.60;64.10;;;;;;6286900;28;20032;-71
2022/11/01 13:16:42;;;;;;;4.82;3.20;;;20.60;64.10;;;;;;6282634;28;20020;-71
2022/11/01 13:20:08;;;;;;;4.85;3.05;;;20.60;64.00;;;;;;6287563;28;20041;-70
2022/11/01 13:23:18;;;;;;;6.97;3.38;;;20.60;64.00;;;;;;6293687;28;20023;-71
2022/11/01 13:26:40;;;;;;;4.68;3.00;;;20.60;64.10;;;;;;6280876;28;20040;-70
2022/11/01 13:29:49;;;;;;;5.75;3.08;;;20.60;64.00;;;;;;6293215;28;20020;-71
2022/11/01 13:33:06;;;;;;;4.18;2.97;;;20.60;64.10;;;;;;6292991;28;20514;-71
2022/11/01 13:36:22;;;;;;;5.35;3.10;;;20.60;64.10;;;;;;6293143;28;20029;-70
2022/11/01 13:39:46;;;;;;;4.30;3.08;;;20.60;64.00;;;;;;6289683;28;20048;-71
2022/11/01 13:43:03;;;;;;;3.42;2.90;;;20.60;64.10;;;;;;6292579;28;20100;-71
2022/11/01 13:46:30;;;;;;;7.85;3.30;;;20.60;64.10;;;;;;6308625;28;20033;-70
2022/11/01 13:49:46;;;;;;;7.18;3.00;;;20.60;64.30;;;;;;6283850;28;20028;-70
2022/11/01 13:53:12;;;;;;;3.47;2.70;;;20.60;64.20;;;;;;6262694;28;20045;-70
2022/11/01 13:56:16;;;;;;;6.05;2.95;;;20.60;64.10;;;;;;6253328;28;20116;-70
2022/11/01 13:59:49;;;;;;;5.55;2.90;;;20.60;64.10;;;;;;6267210;28;20040;-71
2022/11/01 14:02:56;;;;;;;4.20;2.85;;;20.60;64.10;;;;;;6270296;28;20044;-71
2022/11/01 14:06:08;;;;;;;3.90;2.53;;;20.60;64.00;;;;;;6267326;28;20017;-69
2022/11/01 14:09:19;;;;;;;4.10;2.95;;;20.60;65.00;;;;;;6266491;28;20024;-71
2022/11/01 14:12:39;;;;;;;4.38;2.83;;;20.60;64.10;;;;;;6250518;28;20040;-70
2022/11/01 14:15:54;;;;;;;4.32;2.47;;;20.60;64.10;;;;;;6267850;28;20099;-71
2022/11/01 14:19:01;;;;;;;5.75;2.65;;;20.60;64.10;;;;;;6267697;28;20258;-71
2022/11/01 14:22:02;;;;;;;4.22;2.92;;;20.60;64.10;;;;;;6266906;28;20021;-70
2022/11/01 14:25:12;;;;;;;3.83;2.70;;;20.60;64.10;;;;;;6267865;28;20025;-70
2022/11/01 14:28:15;;;;;;;3.28;2.60;;;20.60;64.10;;;;;;6266816;28;20021;-71
2022/11/01 14:31:18;;;;;;;3.47;2.65;;;20.60;64.10;;;;;;6266845;28;20560;-71
2022/11/01 14:34:28;;;;;;;5.28;2.85;;;20.60;64.10;;;;;;6257545;28;20380;-71
2022/11/01 14:37:35;;;;;;;3.50;2.42;;;20.60;64.10;;;;;;6267050;28;20488;-71
2022/11/01 14:40:45;;;;;;;3.17;2.65;;;20.60;65.00;;;;;;6267264;28;20377;-70
2022/11/01 14:44:00;;;;;;;4.15;2.65;;;20.60;64.10;;;;;;6242214;28;20656;-71
2022/11/01 14:47:22;;;;;;;3.28;2.80;;;20.60;64.10;;;;;;6254426;28;20033;-69
2022/11/01 14:50:37;;;;;;;4.97;2.45;;;20.60;64.20;;;;;;6260527;28;20057;-70
2022/11/01 14:53:40;;;;;;;3.72;2.30;;;20.60;64.10;;;;;;6283136;28;20120;-70
2022/11/01 14:56:51;;;;;;;4.38;2.50;;;20.60;64.10;;;;;;6290731;28;20396;-71
2022/11/01 14:59:53;;;;;;;4.28;2.63;;;20.60;64.00;;;;;;6272786;28;20049;-70
2022/11/01 15:02:57;;;;;;;2.90;2.38;;;20.60;64.00;;;;;;6292387;28;20009;-71
2022/11/01 15:05:58;;;;;;;3.33;2.45;;;20.60;63.90;;;;;;6276657;28;20028;-70
2022/11/01 15:09:02;;;;;;;7.13;2.50;;;20.60;63.90;;;;;;6281968;28;20074;-71
2022/11/01 15:12:09;;;;;;;4.15;2.63;;;20.70;64.00;;;;;;6297781;28;20032;-71
2022/11/01 15:15:17;;;;;;;4.47;2.63;;;20.60;63.90;;;;;;6295702;28;20297;-71
2022/11/01 15:18:19;;;;;;;5.00;2.78;;;20.70;64.00;;;;;;6288046;28;20058;-71
2022/11/01 15:21:23;;;;;;;4.03;2.22;;;20.70;64.00;;;;;;6296517;28;20060;-70
2022/11/01 15:24:25;;;;;;;2.85;2.22;;;20.70;63.80;;;;;;6295900;28;20016;-71
2022/11/01 15:27:34;;;;;;;3.40;2.35;;;20.70;63.70;;;;;;6295492;28;20062;-70
2022/11/01 15:30:35;;;;;;;3.55;2.60;;;20.70;63.70;;;;;;6311328;28;20608;-71
2022/11/01 15:33:37;;;;;;;3.30;2.17;;;20.80;63.70;;;;;;6295188;28;20029;-70
2022/11/01 15:36:39;;;;;;;2.83;2.25;;;20.80;63.70;;;;;;6295801;28;20028;-70
2022/11/01 15:39:39;;;;;;;3.35;2.10;;;20.80;64.50;;;;;;6295219;28;20032;-70
2022/11/01 15:42:45;;;;;;;6.10;2.53;;;20.90;63.80;;;;;;6295649;28;20021;-70
2022/11/01 15:46:00;;;;;;;3.58;2.47;;;20.80;63.70;;;;;;6294552;28;20128;-71
2022/11/01 15:49:09;;;;;;;2.80;2.03;;;20.90;63.80;;;;;;6294187;28;20017;-71
2022/11/01 15:52:26;;;;;;;4.47;2.25;;;20.80;63.70;;;;;;6290018;28;20446;-70
2022/11/01 15:55:32;;;;;;;3.60;2.30;;;20.80;63.80;;;;;;6295157;28;20107;-71
2022/11/01 15:58:44;;;;;;;2.53;2.05;;;20.80;63.80;;;;;;6276069;28;20032;-71
2022/11/01 16:01:47;;;;;;;3.00;2.15;;;20.80;63.90;;;;;;6295921;28;20146;-71
2022/11/01 16:04:48;;;;;;;4.70;2.47;;;20.80;63.90;;;;;;6294677;28;20426;-71
2022/11/01 16:07:49;;;;;;;3.72;2.30;;;20.80;63.90;;;;;;6295208;28;20024;-71
2022/11/01 16:10:49;;;;;;;2.97;1.95;;;20.80;63.90;;;;;;6294755;28;20017;-72